SAS1643 EVRA-EKCH
Flight info
| Callsign | SAS1643 |
|---|---|
| Flight time | N/A |
| Altitude | 34000 |
| Route | VALED M869 LEP M864 ADAXA DCT NINTA DCT DIPEB DCT KOLJA DCT ELVIX L975 TIDVU |
| Aircraft | A320/M-SDE3FGHIRWY/LB1 |
Departure
| Time | N/A |
|---|---|
| Airport | Riga International Airport (EVRA) |
Arrival
| Time | 2026-05-03 21:17 |
|---|---|
| Airport | Copenhagen Kastrup Airport (EKCH) |
| Time | Latitude | Longitude | Altitude | Speed | Heading |
|---|---|---|---|---|---|
| 2026-05-03 20:15 | 56.75461 | 23.02266 | 18487 ft | 378 kts | 261° |
| 2026-05-03 20:15 | 56.75029 | 22.97504 | 19022 ft | 381 kts | 261° |
| 2026-05-03 20:15 | 56.74590 | 22.92712 | 19576 ft | 384 kts | 261° |
| 2026-05-03 20:15 | 56.74153 | 22.87946 | 20100 ft | 387 kts | 261° |
| 2026-05-03 20:16 | 56.73702 | 22.83033 | 20625 ft | 390 kts | 261° |
| 2026-05-03 20:16 | 56.73256 | 22.78194 | 21101 ft | 393 kts | 261° |
| 2026-05-03 20:16 | 56.72802 | 22.73274 | 21566 ft | 395 kts | 261° |
| 2026-05-03 20:16 | 56.72342 | 22.68310 | 22014 ft | 399 kts | 261° |
| 2026-05-03 20:17 | 56.71873 | 22.63303 | 22411 ft | 402 kts | 261° |
| 2026-05-03 20:17 | 56.71391 | 22.58193 | 22829 ft | 405 kts | 261° |
| 2026-05-03 20:17 | 56.70909 | 22.53118 | 23230 ft | 408 kts | 261° |
| 2026-05-03 20:17 | 56.70427 | 22.48064 | 23596 ft | 411 kts | 261° |
| 2026-05-03 20:18 | 56.69935 | 22.42923 | 23930 ft | 413 kts | 261° |
| 2026-05-03 20:18 | 56.69436 | 22.37758 | 24280 ft | 415 kts | 261° |
| 2026-05-03 20:18 | 56.68933 | 22.32557 | 24633 ft | 417 kts | 261° |
| 2026-05-03 20:18 | 56.68428 | 22.27340 | 24986 ft | 419 kts | 261° |
| 2026-05-03 20:19 | 56.67913 | 22.22058 | 25341 ft | 420 kts | 261° |
| 2026-05-03 20:19 | 56.67407 | 22.16856 | 25681 ft | 422 kts | 261° |
| 2026-05-03 20:19 | 56.66893 | 22.11589 | 26024 ft | 424 kts | 261° |
| 2026-05-03 20:19 | 56.66370 | 22.06276 | 26364 ft | 425 kts | 261° |
| 2026-05-03 20:20 | 56.65845 | 22.00964 | 26697 ft | 427 kts | 261° |
| 2026-05-03 20:20 | 56.65318 | 21.95643 | 27009 ft | 429 kts | 261° |
| 2026-05-03 20:20 | 56.64785 | 21.90301 | 27350 ft | 430 kts | 261° |
| 2026-05-03 20:20 | 56.64247 | 21.84938 | 27804 ft | 428 kts | 261° |
| 2026-05-03 20:21 | 56.63710 | 21.79633 | 28274 ft | 427 kts | 261° |
| 2026-05-03 20:21 | 56.63170 | 21.74343 | 28747 ft | 425 kts | 261° |
| 2026-05-03 20:21 | 56.62629 | 21.69051 | 29229 ft | 424 kts | 261° |
| 2026-05-03 20:21 | 56.62092 | 21.63808 | 29713 ft | 422 kts | 261° |
| 2026-05-03 20:22 | 56.61554 | 21.58564 | 30167 ft | 421 kts | 261° |
| 2026-05-03 20:22 | 56.61019 | 21.53368 | 30598 ft | 419 kts | 261° |
| 2026-05-03 20:22 | 56.60482 | 21.48166 | 31017 ft | 418 kts | 261° |
| 2026-05-03 20:22 | 56.59943 | 21.42986 | 31433 ft | 416 kts | 261° |
| 2026-05-03 20:23 | 56.59404 | 21.37827 | 31861 ft | 415 kts | 261° |
| 2026-05-03 20:23 | 56.58863 | 21.32684 | 32325 ft | 413 kts | 261° |
| 2026-05-03 20:23 | 56.58323 | 21.27574 | 32804 ft | 410 kts | 261° |
| 2026-05-03 20:23 | 56.57787 | 21.22498 | 33283 ft | 408 kts | 261° |
| 2026-05-03 20:24 | 56.57252 | 21.17464 | 33745 ft | 406 kts | 261° |
| 2026-05-03 20:24 | 56.56714 | 21.12427 | 33890 ft | 407 kts | 260° |
| 2026-05-03 20:24 | 56.56172 | 21.07367 | 33923 ft | 410 kts | 260° |
| 2026-05-03 20:25 | 56.55076 | 20.97189 | 33923 ft | 411 kts | 260° |
| 2026-05-03 20:25 | 56.53968 | 20.86997 | 33918 ft | 412 kts | 260° |
| 2026-05-03 20:26 | 56.52860 | 20.76829 | 33913 ft | 412 kts | 260° |
| 2026-05-03 20:26 | 56.51735 | 20.66640 | 33912 ft | 412 kts | 260° |
| 2026-05-03 20:27 | 56.50598 | 20.56411 | 33920 ft | 411 kts | 260° |
| 2026-05-03 20:27 | 56.49468 | 20.46310 | 33899 ft | 412 kts | 259° |
| 2026-05-03 20:28 | 56.48315 | 20.36148 | 33893 ft | 413 kts | 259° |
| 2026-05-03 20:28 | 56.47150 | 20.25963 | 33898 ft | 414 kts | 259° |
| 2026-05-03 20:29 | 56.45969 | 20.15670 | 33903 ft | 415 kts | 259° |
| 2026-05-03 20:29 | 56.44791 | 20.05461 | 33908 ft | 415 kts | 259° |
| 2026-05-03 20:30 | 56.43594 | 19.95250 | 33923 ft | 415 kts | 258° |
| 2026-05-03 20:30 | 56.42395 | 19.85053 | 33925 ft | 415 kts | 258° |
| 2026-05-03 20:31 | 56.41199 | 19.74869 | 33923 ft | 414 kts | 258° |
| 2026-05-03 20:31 | 56.39980 | 19.64621 | 33921 ft | 414 kts | 258° |
| 2026-05-03 20:32 | 56.38766 | 19.54520 | 33920 ft | 414 kts | 258° |
| 2026-05-03 20:32 | 56.37530 | 19.44375 | 33890 ft | 415 kts | 258° |
| 2026-05-03 20:33 | 56.36282 | 19.34135 | 33894 ft | 416 kts | 258° |
| 2026-05-03 20:33 | 56.35024 | 19.23956 | 33909 ft | 416 kts | 257° |
| 2026-05-03 20:34 | 56.33774 | 19.13844 | 33906 ft | 416 kts | 257° |
| 2026-05-03 20:34 | 56.32504 | 19.03610 | 33913 ft | 416 kts | 257° |
| 2026-05-03 20:35 | 56.31227 | 18.93458 | 33915 ft | 415 kts | 257° |
| 2026-05-03 20:35 | 56.29944 | 18.83317 | 33910 ft | 415 kts | 257° |
| 2026-05-03 20:36 | 56.28662 | 18.73187 | 33912 ft | 415 kts | 257° |
| 2026-05-03 20:36 | 56.27373 | 18.63060 | 33923 ft | 415 kts | 256° |
| 2026-05-03 20:37 | 56.26068 | 18.52974 | 33923 ft | 414 kts | 256° |
| 2026-05-03 20:37 | 56.24754 | 18.42830 | 33901 ft | 415 kts | 256° |
| 2026-05-03 20:38 | 56.23651 | 18.34386 | 33896 ft | 415 kts | 256° |
| 2026-05-03 20:38 | 56.22297 | 18.24249 | 33903 ft | 416 kts | 255° |
| 2026-05-03 20:39 | 56.20804 | 18.14217 | 33900 ft | 416 kts | 254° |
| 2026-05-03 20:39 | 56.19251 | 18.04186 | 33904 ft | 416 kts | 254° |
| 2026-05-03 20:40 | 56.17712 | 17.94156 | 33926 ft | 416 kts | 254° |
| 2026-05-03 20:40 | 56.16182 | 17.84066 | 33923 ft | 416 kts | 254° |
| 2026-05-03 20:41 | 56.14653 | 17.74062 | 33909 ft | 415 kts | 254° |
| 2026-05-03 20:41 | 56.13108 | 17.64084 | 33908 ft | 415 kts | 254° |
| 2026-05-03 20:42 | 56.11562 | 17.54123 | 33894 ft | 415 kts | 254° |
| 2026-05-03 20:42 | 56.10007 | 17.44165 | 33897 ft | 415 kts | 254° |
| 2026-05-03 20:43 | 56.08439 | 17.34201 | 33900 ft | 415 kts | 254° |
| 2026-05-03 20:43 | 56.06865 | 17.24250 | 33918 ft | 415 kts | 254° |
| 2026-05-03 20:44 | 56.05293 | 17.14312 | 33915 ft | 415 kts | 253° |
| 2026-05-03 20:44 | 56.03710 | 17.04401 | 33911 ft | 414 kts | 253° |
| 2026-05-03 20:45 | 56.02115 | 16.94510 | 33908 ft | 414 kts | 253° |
| 2026-05-03 20:45 | 56.00511 | 16.84642 | 33909 ft | 414 kts | 253° |
| 2026-05-03 20:46 | 55.98771 | 16.74849 | 33902 ft | 413 kts | 250° |
| 2026-05-03 20:46 | 55.96788 | 16.65210 | 33876 ft | 413 kts | 249° |
| 2026-05-03 20:47 | 55.94758 | 16.55623 | 33881 ft | 413 kts | 249° |
| 2026-05-03 20:47 | 55.92756 | 16.45998 | 33885 ft | 414 kts | 250° |
| 2026-05-03 20:48 | 55.90766 | 16.36306 | 33889 ft | 414 kts | 250° |
| 2026-05-03 20:48 | 55.88782 | 16.26679 | 33893 ft | 414 kts | 250° |
| 2026-05-03 20:49 | 55.86775 | 16.17059 | 33892 ft | 414 kts | 249° |
| 2026-05-03 20:49 | 55.84763 | 16.07461 | 33894 ft | 414 kts | 249° |
| 2026-05-03 20:50 | 55.82753 | 15.97867 | 33896 ft | 414 kts | 249° |
| 2026-05-03 20:50 | 55.80717 | 15.88228 | 33892 ft | 413 kts | 249° |
| 2026-05-03 20:51 | 55.78689 | 15.78662 | 33892 ft | 413 kts | 249° |
| 2026-05-03 20:51 | 55.76647 | 15.69036 | 33893 ft | 414 kts | 249° |
| 2026-05-03 20:52 | 55.74607 | 15.59509 | 33894 ft | 414 kts | 249° |
| 2026-05-03 20:52 | 55.72543 | 15.49941 | 33894 ft | 414 kts | 249° |
| 2026-05-03 20:53 | 55.70476 | 15.40397 | 33892 ft | 414 kts | 249° |
| 2026-05-03 20:53 | 55.68407 | 15.30862 | 33895 ft | 414 kts | 249° |
| 2026-05-03 20:54 | 55.66329 | 15.21332 | 33661 ft | 407 kts | 249° |
| 2026-05-03 20:54 | 55.64278 | 15.11978 | 31916 ft | 410 kts | 248° |
| 2026-05-03 20:54 | 55.63236 | 15.07247 | 30888 ft | 415 kts | 248° |
| 2026-05-03 20:55 | 55.62180 | 15.02446 | 29858 ft | 421 kts | 248° |
| 2026-05-03 20:55 | 55.61116 | 14.97615 | 28964 ft | 420 kts | 248° |
| 2026-05-03 20:55 | 55.60057 | 14.92821 | 28239 ft | 416 kts | 248° |
| 2026-05-03 20:55 | 55.59008 | 14.88088 | 27531 ft | 412 kts | 248° |
| 2026-05-03 20:56 | 55.57966 | 14.83398 | 26843 ft | 408 kts | 248° |
| 2026-05-03 20:56 | 55.56932 | 14.78756 | 26176 ft | 404 kts | 248° |
| 2026-05-03 20:56 | 55.55907 | 14.74167 | 25536 ft | 400 kts | 248° |
| 2026-05-03 20:56 | 55.54890 | 14.69623 | 24903 ft | 396 kts | 248° |
| 2026-05-03 20:57 | 55.53877 | 14.65116 | 24290 ft | 393 kts | 248° |
| 2026-05-03 20:57 | 55.52871 | 14.60653 | 23678 ft | 390 kts | 247° |
| 2026-05-03 20:57 | 55.51867 | 14.56202 | 22994 ft | 388 kts | 247° |
| 2026-05-03 20:57 | 55.50871 | 14.51802 | 22343 ft | 385 kts | 247° |
| 2026-05-03 20:58 | 55.49889 | 14.47472 | 21750 ft | 381 kts | 247° |
| 2026-05-03 20:58 | 55.48906 | 14.43137 | 21177 ft | 377 kts | 247° |
| 2026-05-03 20:58 | 55.47937 | 14.38867 | 20643 ft | 373 kts | 247° |
| 2026-05-03 20:58 | 55.46970 | 14.34616 | 20119 ft | 369 kts | 247° |
| 2026-05-03 20:59 | 55.46022 | 14.30456 | 19628 ft | 366 kts | 246° |
| 2026-05-03 20:59 | 55.45079 | 14.26322 | 19173 ft | 362 kts | 246° |
| 2026-05-03 20:59 | 55.44143 | 14.22235 | 18693 ft | 358 kts | 246° |
| 2026-05-03 20:59 | 55.43200 | 14.18134 | 18206 ft | 355 kts | 246° |
| 2026-05-03 21:00 | 55.42278 | 14.14125 | 17651 ft | 351 kts | 246° |
| 2026-05-03 21:00 | 55.41985 | 14.12833 | 17484 ft | 350 kts | 248° |
| 2026-05-03 21:00 | 55.41193 | 14.05845 | 16537 ft | 349 kts | 265° |
| 2026-05-03 21:00 | 55.41202 | 14.01579 | 15968 ft | 347 kts | 267° |
| 2026-05-03 21:01 | 55.41213 | 13.97352 | 15398 ft | 344 kts | 266° |
| 2026-05-03 21:01 | 55.41215 | 13.93160 | 14801 ft | 342 kts | 266° |
| 2026-05-03 21:01 | 55.41212 | 13.88985 | 14235 ft | 339 kts | 266° |
| 2026-05-03 21:01 | 55.41208 | 13.84852 | 13686 ft | 337 kts | 266° |
| 2026-05-03 21:02 | 55.41202 | 13.80745 | 13083 ft | 334 kts | 266° |
| 2026-05-03 21:02 | 55.41195 | 13.76657 | 12503 ft | 331 kts | 266° |
| 2026-05-03 21:02 | 55.41187 | 13.72652 | 11943 ft | 327 kts | 265° |
| 2026-05-03 21:02 | 55.41176 | 13.68672 | 11388 ft | 324 kts | 265° |
| 2026-05-03 21:03 | 55.41165 | 13.64745 | 11068 ft | 314 kts | 265° |
| 2026-05-03 21:03 | 55.41159 | 13.60995 | 10934 ft | 300 kts | 265° |
| 2026-05-03 21:03 | 55.41163 | 13.57428 | 10808 ft | 288 kts | 267° |
| 2026-05-03 21:03 | 55.41313 | 13.55082 | 10723 ft | 284 kts | 275° |
| 2026-05-03 21:04 | 55.41834 | 13.51770 | 10598 ft | 277 kts | 280° |
| 2026-05-03 21:04 | 55.42392 | 13.48572 | 10374 ft | 271 kts | 280° |
| 2026-05-03 21:04 | 55.42943 | 13.45408 | 10064 ft | 269 kts | 280° |
| 2026-05-03 21:04 | 55.43485 | 13.42275 | 9759 ft | 267 kts | 280° |
| 2026-05-03 21:05 | 55.44024 | 13.39132 | 9344 ft | 268 kts | 280° |
| 2026-05-03 21:05 | 55.44561 | 13.35987 | 8956 ft | 268 kts | 280° |
| 2026-05-03 21:05 | 55.45100 | 13.32841 | 8590 ft | 267 kts | 280° |
| 2026-05-03 21:05 | 55.45632 | 13.29719 | 8257 ft | 265 kts | 278° |
| 2026-05-03 21:06 | 55.45891 | 13.26559 | 7967 ft | 257 kts | 265° |
| 2026-05-03 21:06 | 55.45767 | 13.23443 | 7717 ft | 255 kts | 259° |
| 2026-05-03 21:06 | 55.45569 | 13.20338 | 7532 ft | 255 kts | 259° |
| 2026-05-03 21:06 | 55.45377 | 13.17229 | 7360 ft | 255 kts | 259° |
| 2026-05-03 21:07 | 55.45186 | 13.14123 | 7185 ft | 255 kts | 259° |
| 2026-05-03 21:07 | 55.44997 | 13.11021 | 7028 ft | 255 kts | 259° |
| 2026-05-03 21:07 | 55.44860 | 13.07904 | 6851 ft | 258 kts | 269° |
| 2026-05-03 21:07 | 55.45407 | 13.04850 | 6681 ft | 270 kts | 297° |
| 2026-05-03 21:08 | 55.46827 | 13.02414 | 6509 ft | 283 kts | 321° |
| 2026-05-03 21:08 | 55.48492 | 13.00674 | 6348 ft | 285 kts | 325° |
| 2026-05-03 21:08 | 55.50224 | 12.98973 | 6170 ft | 285 kts | 325° |
| 2026-05-03 21:08 | 55.51963 | 12.97282 | 5988 ft | 284 kts | 325° |
| 2026-05-03 21:09 | 55.53681 | 12.95610 | 5746 ft | 280 kts | 326° |
| 2026-05-03 21:09 | 55.55411 | 12.94074 | 5530 ft | 279 kts | 338° |
| 2026-05-03 21:09 | 55.57333 | 12.93572 | 5308 ft | 280 kts | 353° |
| 2026-05-03 21:09 | 55.59263 | 12.93460 | 5093 ft | 275 kts | 355° |
| 2026-05-03 21:10 | 55.61164 | 12.93375 | 4880 ft | 271 kts | 355° |
| 2026-05-03 21:10 | 55.63029 | 12.93641 | 4669 ft | 268 kts | 11° |
| 2026-05-03 21:10 | 55.64807 | 12.94523 | 4490 ft | 263 kts | 15° |
| 2026-05-03 21:10 | 55.66528 | 12.95472 | 4309 ft | 256 kts | 15° |
| 2026-05-03 21:11 | 55.68168 | 12.96580 | 4131 ft | 250 kts | 29° |
| 2026-05-03 21:11 | 55.69613 | 12.98205 | 3986 ft | 241 kts | 32° |
| 2026-05-03 21:11 | 55.71150 | 12.99185 | 3831 ft | 233 kts | 359° |
| 2026-05-03 21:11 | 55.72675 | 12.98596 | 3657 ft | 221 kts | 322° |
| 2026-05-03 21:12 | 55.73827 | 12.96873 | 3539 ft | 216 kts | 308° |
| 2026-05-03 21:12 | 55.74816 | 12.94840 | 3413 ft | 211 kts | 294° |
| 2026-05-03 21:12 | 55.75155 | 12.92426 | 3289 ft | 201 kts | 263° |
| 2026-05-03 21:12 | 55.75011 | 12.89968 | 3186 ft | 200 kts | 256° |
| 2026-05-03 21:13 | 55.74780 | 12.87530 | 3086 ft | 199 kts | 254° |
| 2026-05-03 21:13 | 55.74290 | 12.85346 | 3013 ft | 184 kts | 233° |
| 2026-05-03 21:13 | 55.73445 | 12.83733 | 2844 ft | 176 kts | 219° |
| 2026-05-03 21:13 | 55.72532 | 12.82310 | 2632 ft | 174 kts | 220° |
| 2026-05-03 21:14 | 55.71619 | 12.80886 | 2418 ft | 175 kts | 220° |
| 2026-05-03 21:14 | 55.70706 | 12.79461 | 2186 ft | 175 kts | 220° |
| 2026-05-03 21:14 | 55.69781 | 12.78019 | 1981 ft | 178 kts | 220° |
| 2026-05-03 21:14 | 55.68860 | 12.76584 | 1721 ft | 174 kts | 219° |
| 2026-05-03 21:15 | 55.67974 | 12.75202 | 1472 ft | 165 kts | 219° |
| 2026-05-03 21:15 | 55.67130 | 12.73889 | 1257 ft | 156 kts | 219° |
| 2026-05-03 21:15 | 55.66347 | 12.72670 | 1051 ft | 145 kts | 219° |
| 2026-05-03 21:15 | 55.65599 | 12.71508 | 850 ft | 142 kts | 219° |
| 2026-05-03 21:16 | 55.64854 | 12.70352 | 669 ft | 142 kts | 220° |
| 2026-05-03 21:16 | 55.64100 | 12.69182 | 479 ft | 146 kts | 220° |
| 2026-05-03 21:16 | 55.63329 | 12.67987 | 292 ft | 149 kts | 220° |
| 2026-05-03 21:16 | 55.62547 | 12.66766 | 71 ft | 148 kts | 221° |
| 2026-05-03 21:17 | 55.61870 | 12.65710 | 27 ft | 92 kts | 221° |
| 2026-05-03 21:17 | 55.61617 | 12.65323 | 22 ft | 54 kts | 222° |
| 2026-05-03 21:17 | 55.61353 | 12.64911 | 25 ft | 34 kts | 225° |
| 2026-05-03 21:17 | 55.61243 | 12.64547 | 24 ft | 32 kts | 252° |
| 2026-05-03 21:18 | 55.61194 | 12.64288 | 24 ft | 13 kts | 252° |
| 2026-05-03 21:18 | 55.61205 | 12.64141 | 24 ft | 12 kts | 306° |
| 2026-05-03 21:18 | 55.61281 | 12.64110 | 24 ft | 12 kts | 22° |
| 2026-05-03 21:18 | 55.61365 | 12.64208 | 24 ft | 18 kts | 33° |
| 2026-05-03 21:19 | 55.61486 | 12.64348 | 24 ft | 22 kts | 34° |
| 2026-05-03 21:19 | 55.61612 | 12.64491 | 24 ft | 21 kts | 32° |
| 2026-05-03 21:19 | 55.61736 | 12.64634 | 24 ft | 21 kts | 33° |
| 2026-05-03 21:19 | 55.61860 | 12.64776 | 24 ft | 21 kts | 33° |
| 2026-05-03 21:20 | 55.61985 | 12.64918 | 24 ft | 21 kts | 33° |
| 2026-05-03 21:20 | 55.62100 | 12.65058 | 24 ft | 18 kts | 34° |
| 2026-05-03 21:20 | 55.62193 | 12.65157 | 24 ft | 13 kts | 31° |
| 2026-05-03 21:20 | 55.62251 | 12.65151 | 24 ft | 8 kts | 310° |
| 2026-05-03 21:21 | 55.62286 | 12.65057 | 24 ft | 10 kts | 293° |
| 2026-05-03 21:21 | 55.62327 | 12.64939 | 25 ft | 13 kts | 303° |
| 2026-05-03 21:21 | 55.62382 | 12.64794 | 24 ft | 15 kts | 303° |
| 2026-05-03 21:21 | 55.62438 | 12.64641 | 24 ft | 15 kts | 303° |
| 2026-05-03 21:22 | 55.62486 | 12.64513 | 24 ft | 11 kts | 304° |
| 2026-05-03 21:22 | 55.62506 | 12.64480 | 24 ft | 2 kts | 353° |
| 2026-05-03 21:22 | 55.62524 | 12.64489 | 24 ft | 4 kts | 17° |
| 2026-05-03 21:22 | 55.62554 | 12.64505 | 24 ft | 3 kts | 16° |
| 2026-05-03 21:23 | 55.62563 | 12.64509 | 24 ft | 0 kts | 16° |
| 2026-05-03 21:23 | 55.62564 | 12.64510 | 24 ft | 0 kts | 16° |